createdAt,value
2023-04-15T00:01:13.358Z,27.50
2023-04-15T00:03:41.457Z,27.60
2023-04-15T00:06:09.839Z,29.00
2023-04-15T00:08:37.858Z,26.70
2023-04-15T00:11:06.066Z,27.80
2023-04-15T00:13:34.891Z,30.40
2023-04-15T00:16:02.809Z,29.90
2023-04-15T00:18:31.593Z,29.30
2023-04-15T00:20:59.500Z,33.70
2023-04-15T00:23:28.065Z,34.30
2023-04-15T00:25:56.578Z,34.90
2023-04-15T00:28:24.447Z,33.90
2023-04-15T00:30:52.370Z,34.80
2023-04-15T00:33:20.409Z,36.90
2023-04-15T00:35:48.323Z,37.30
2023-04-15T00:38:16.195Z,37.90
2023-04-15T00:40:44.489Z,38.20
2023-04-15T00:43:12.547Z,38.30
2023-04-15T00:45:41.240Z,39.20
2023-04-15T00:48:09.621Z,32.20
2023-04-15T00:50:37.510Z,34.40
2023-04-15T00:53:05.645Z,32.60
2023-04-15T00:55:33.854Z,37.00
2023-04-15T00:58:02.167Z,35.80
2023-04-15T01:00:30.486Z,35.20
2023-04-15T01:03:00.263Z,35.00
2023-04-15T01:05:28.735Z,34.20
2023-04-15T01:07:58.205Z,35.00
2023-04-15T01:10:26.099Z,35.20
2023-04-15T01:12:53.982Z,34.70
2023-04-15T01:15:21.932Z,33.70
2023-04-15T01:17:50.266Z,35.20
2023-04-15T01:20:18.401Z,35.60
2023-04-15T01:22:46.590Z,33.50
2023-04-15T01:25:19.958Z,32.90
2023-04-15T01:27:48.416Z,34.10
2023-04-15T01:30:17.325Z,32.50
2023-04-15T01:32:45.276Z,32.30
2023-04-15T01:35:13.211Z,30.50
2023-04-15T01:37:41.182Z,28.40
2023-04-15T01:40:09.420Z,28.60
2023-04-15T01:42:37.664Z,31.00
2023-04-15T01:45:07.220Z,29.90
2023-04-15T01:47:35.259Z,28.50
2023-04-15T01:50:03.402Z,28.60
2023-04-15T01:52:32.209Z,27.40
2023-04-15T01:55:00.132Z,26.50
2023-04-15T01:57:28.159Z,26.90
2023-04-15T01:59:56.148Z,25.00
2023-04-15T02:02:24.168Z,24.70
2023-04-15T02:04:52.246Z,23.30
2023-04-15T02:07:20.200Z,24.70
2023-04-15T02:09:48.140Z,22.10
2023-04-15T02:12:16.133Z,22.60
2023-04-15T02:14:43.961Z,21.20
2023-04-15T02:17:11.872Z,21.90
2023-04-15T02:19:40.527Z,20.70
2023-04-15T02:22:09.411Z,20.30
2023-04-15T02:24:37.439Z,22.40
2023-04-15T02:27:05.301Z,26.00
2023-04-15T02:29:33.230Z,21.00
2023-04-15T02:32:01.978Z,19.40
2023-04-15T02:34:30.449Z,19.00
2023-04-15T02:36:59.009Z,15.50
2023-04-15T02:39:27.382Z,14.70
2023-04-15T02:41:55.529Z,8.80
2023-04-15T02:44:25.004Z,6.90
2023-04-15T02:46:54.896Z,4.80
2023-04-15T02:49:23.034Z,3.80
2023-04-15T02:51:51.658Z,3.50
2023-04-15T02:54:22.811Z,3.20
2023-04-15T02:56:50.892Z,3.20
2023-04-15T02:59:18.758Z,2.70
2023-04-15T03:01:46.758Z,3.10
2023-04-15T03:04:14.966Z,3.40
2023-04-15T03:06:43.084Z,3.10
2023-04-15T03:09:11.136Z,3.10
2023-04-15T03:11:40.799Z,3.30
2023-04-15T03:14:09.907Z,4.40
2023-04-15T03:16:40.713Z,4.00
2023-04-15T03:19:09.070Z,3.60
2023-04-15T03:21:37.023Z,3.00
2023-04-15T03:24:05.079Z,2.50
2023-04-15T03:26:33.345Z,2.40
2023-04-15T03:29:03.671Z,2.40
2023-04-15T03:31:31.784Z,2.70
2023-04-15T03:33:59.770Z,2.90
2023-04-15T03:36:31.277Z,3.00
2023-04-15T03:38:59.847Z,2.90
2023-04-15T03:41:28.829Z,2.80
2023-04-15T03:43:57.157Z,3.40
2023-04-15T03:46:25.143Z,3.80
2023-04-15T03:48:53.144Z,3.80
2023-04-15T03:51:21.447Z,3.60
2023-04-15T03:53:49.372Z,3.60
2023-04-15T03:56:17.307Z,3.20
2023-04-15T03:58:45.383Z,3.20
2023-04-15T04:01:13.284Z,2.60
2023-04-15T04:03:41.410Z,2.80
2023-04-15T04:06:09.879Z,2.30
2023-04-15T04:08:37.861Z,2.20
2023-04-15T04:11:05.704Z,2.20
2023-04-15T04:13:33.563Z,3.80
2023-04-15T04:16:01.738Z,3.60
2023-04-15T04:18:29.795Z,3.60
2023-04-15T04:20:57.802Z,2.70
2023-04-15T04:23:25.828Z,2.80
2023-04-15T04:25:53.806Z,2.70
2023-04-15T04:28:21.697Z,2.50
2023-04-15T04:30:49.617Z,2.60
2023-04-15T04:33:17.477Z,2.60
2023-04-15T04:35:45.389Z,2.70
2023-04-15T04:38:13.231Z,2.60
2023-04-15T04:40:41.236Z,2.50
2023-04-15T04:43:09.495Z,2.70
2023-04-15T04:45:37.539Z,2.70
2023-04-15T04:48:07.262Z,2.50
2023-04-15T04:50:35.669Z,3.00
2023-04-15T04:53:03.870Z,3.00
2023-04-15T04:55:32.057Z,2.50
2023-04-15T04:57:59.891Z,4.20
2023-04-15T05:00:27.760Z,4.20
2023-04-15T05:02:56.229Z,2.90
2023-04-15T05:05:24.145Z,3.40
2023-04-15T05:07:52.144Z,3.70
2023-04-15T05:10:20.068Z,4.60
2023-04-15T05:12:47.991Z,4.70
2023-04-15T05:15:15.943Z,3.50
2023-04-15T05:17:44.721Z,3.50
2023-04-15T05:20:13.627Z,3.50
2023-04-15T05:22:41.601Z,2.70
2023-04-15T05:25:09.896Z,2.20
2023-04-15T05:27:37.922Z,2.00
2023-04-15T05:30:07.274Z,2.20
2023-04-15T05:32:35.258Z,2.70
2023-04-15T05:35:03.474Z,2.60
2023-04-15T05:37:31.448Z,2.40
2023-04-15T05:39:59.318Z,1.90
2023-04-15T05:42:27.210Z,1.50
2023-04-15T05:44:55.130Z,1.60
2023-04-15T05:47:23.184Z,1.90
2023-04-15T05:49:51.455Z,1.80
2023-04-15T05:52:19.414Z,1.90
2023-04-15T05:54:47.284Z,2.00
2023-04-15T05:57:15.189Z,2.00
2023-04-15T05:59:43.049Z,2.70
2023-04-15T06:02:10.927Z,2.70
2023-04-15T06:04:39.442Z,2.30
2023-04-15T06:07:07.422Z,2.30
2023-04-15T06:09:36.235Z,2.90
2023-04-15T06:12:04.438Z,3.10
2023-04-15T06:14:32.402Z,2.70
2023-04-15T06:17:00.245Z,2.20
2023-04-15T06:19:28.064Z,4.40
2023-04-15T06:21:56.065Z,4.00
2023-04-15T06:24:24.015Z,4.20
2023-04-15T06:26:51.887Z,3.30
2023-04-15T06:29:19.840Z,2.10
2023-04-15T06:31:48.620Z,1.80
2023-04-15T06:34:17.221Z,1.50
2023-04-15T06:36:45.154Z,1.60
2023-04-15T06:39:13.013Z,2.10
2023-04-15T06:41:41.032Z,3.80
2023-04-15T06:44:09.055Z,3.00
2023-04-15T06:46:36.957Z,2.90
2023-04-15T06:49:05.467Z,4.10
2023-04-15T06:51:35.912Z,2.80
2023-04-15T06:54:05.987Z,3.20
2023-04-15T06:56:34.260Z,2.70
2023-04-15T06:59:02.415Z,2.30
2023-04-15T07:01:30.681Z,2.50
2023-04-15T07:03:58.726Z,2.30
2023-04-15T07:06:27.586Z,5.40
2023-04-15T07:08:55.836Z,5.50
2023-04-15T07:11:23.864Z,3.00
2023-04-15T07:13:51.721Z,2.50
2023-04-15T07:16:19.607Z,2.20
2023-04-15T07:18:47.437Z,3.40
2023-04-15T07:21:15.377Z,3.90
2023-04-15T07:23:43.336Z,3.30
2023-04-15T07:26:11.333Z,3.50
2023-04-15T07:28:39.418Z,2.30
2023-04-15T07:31:07.329Z,3.20
2023-04-15T07:33:35.211Z,1.80
2023-04-15T07:36:03.279Z,1.80
2023-04-15T07:38:31.227Z,2.00
2023-04-15T07:40:59.327Z,2.80
2023-04-15T07:43:27.274Z,2.10
2023-04-15T07:45:55.464Z,2.40
2023-04-15T07:48:23.411Z,2.60
2023-04-15T07:50:51.286Z,4.20
2023-04-15T07:53:19.160Z,3.20
2023-04-15T07:55:47.010Z,2.90
2023-04-15T07:58:14.852Z,2.10
2023-04-15T08:00:42.848Z,1.90
2023-04-15T08:03:18.504Z,2.30
2023-04-15T08:05:47.539Z,2.80
2023-04-15T08:08:15.467Z,2.70
2023-04-15T08:10:43.427Z,2.10
2023-04-15T08:13:11.800Z,5.10
2023-04-15T08:15:39.756Z,6.10
2023-04-15T08:18:07.749Z,6.70
2023-04-15T08:20:35.681Z,3.90
2023-04-15T08:23:04.672Z,2.10
2023-04-15T08:25:32.644Z,2.10
2023-04-15T08:28:05.233Z,1.70
2023-04-15T08:30:33.147Z,1.70
2023-04-15T08:33:01.267Z,1.30
2023-04-15T08:35:29.201Z,2.80
2023-04-15T08:37:57.246Z,2.10
2023-04-15T08:40:35.833Z,1.50
2023-04-15T08:43:05.989Z,1.90
2023-04-15T08:45:34.083Z,2.30
2023-04-15T08:48:04.997Z,3.10
2023-04-15T08:50:33.236Z,2.00
2023-04-15T08:53:01.982Z,1.40
2023-04-15T08:55:36.452Z,1.20
2023-04-15T08:58:05.575Z,1.00
2023-04-15T09:00:34.104Z,0.90
2023-04-15T09:03:02.456Z,0.70
2023-04-15T09:05:35.210Z,1.00
2023-04-15T09:08:04.212Z,1.10
2023-04-15T09:10:33.641Z,1.10
2023-04-15T09:13:02.135Z,0.90
2023-04-15T09:15:30.461Z,1.30
2023-04-15T09:17:58.513Z,1.10
2023-04-15T09:20:26.494Z,0.80
2023-04-15T09:22:54.487Z,0.90
2023-04-15T09:25:30.050Z,0.80
2023-04-15T09:28:00.567Z,0.90
2023-04-15T09:30:29.079Z,1.30
2023-04-15T09:33:08.376Z,1.40
2023-04-15T09:35:37.070Z,1.70
2023-04-15T09:38:09.847Z,1.10
2023-04-15T09:40:40.223Z,1.20
2023-04-15T09:43:09.963Z,1.70
2023-04-15T09:45:38.004Z,1.20
2023-04-15T09:48:16.252Z,0.80
2023-04-15T09:50:44.636Z,0.80
2023-04-15T09:53:17.102Z,0.70
2023-04-15T09:55:53.098Z,0.60
2023-04-15T09:58:23.575Z,0.80
2023-04-15T10:00:53.055Z,0.60
2023-04-15T10:03:32.422Z,0.60
2023-04-15T10:06:02.150Z,0.50
2023-04-15T10:08:33.031Z,0.50
2023-04-15T10:11:05.041Z,0.50
2023-04-15T10:13:35.085Z,0.70
2023-04-15T10:16:11.271Z,0.60
2023-04-15T10:18:43.842Z,0.80
2023-04-15T10:21:14.004Z,1.10
2023-04-15T10:23:42.566Z,0.60
2023-04-15T10:26:12.488Z,0.40
2023-04-15T10:28:44.035Z,0.60
2023-04-15T10:31:14.939Z,0.60
2023-04-15T10:33:44.361Z,0.60
2023-04-15T10:36:13.269Z,1.20
2023-04-15T10:38:45.884Z,0.60
2023-04-15T10:41:27.977Z,0.70
2023-04-15T10:44:04.430Z,0.60
2023-04-15T10:46:41.071Z,0.50
2023-04-15T10:49:11.770Z,0.60
2023-04-15T10:51:45.020Z,0.60
2023-04-15T10:54:31.133Z,0.70
2023-04-15T10:57:01.964Z,3.10
2023-04-15T10:59:34.122Z,1.10
2023-04-15T11:02:07.352Z,1.10
2023-04-15T11:04:55.068Z,2.00
2023-04-15T11:07:39.817Z,2.90
2023-04-15T11:10:13.565Z,4.80
2023-04-15T11:12:42.072Z,1.80
2023-04-15T11:15:39.298Z,3.60
2023-04-15T11:18:17.486Z,1.20
2023-04-15T11:20:51.050Z,4.10
2023-04-15T11:23:20.469Z,3.00
2023-04-15T11:25:48.742Z,0.70
2023-04-15T11:28:16.755Z,4.10
2023-04-15T11:30:44.664Z,4.30
2023-04-15T11:33:13.832Z,1.10
2023-04-15T11:35:42.433Z,1.00
2023-04-15T11:38:13.888Z,2.30
2023-04-15T11:40:46.227Z,1.40
2023-04-15T11:43:22.968Z,1.40
2023-04-15T11:45:56.388Z,1.10
2023-04-15T11:50:59.213Z,1.90
2023-04-15T11:53:40.811Z,1.10
2023-04-15T11:56:10.601Z,2.10
2023-04-15T11:58:39.308Z,5.80
2023-04-15T12:01:07.835Z,4.00
2023-04-15T12:03:41.426Z,2.20
2023-04-15T12:06:21.884Z,1.90
2023-04-15T12:08:55.831Z,2.00
2023-04-15T12:11:26.547Z,1.30
2023-04-15T12:13:59.383Z,1.90
2023-04-15T12:16:28.616Z,0.80
2023-04-15T12:19:01.397Z,1.00
2023-04-15T12:21:35.530Z,0.80
2023-04-15T12:24:06.345Z,3.20
2023-04-15T12:26:35.699Z,1.80
2023-04-15T12:29:08.709Z,2.20
2023-04-15T12:31:37.276Z,1.40
2023-04-15T12:34:09.277Z,1.10
2023-04-15T12:36:37.755Z,1.70
2023-04-15T12:39:08.802Z,1.40
2023-04-15T12:41:36.682Z,1.30
2023-04-15T12:44:05.579Z,1.10
2023-04-15T12:46:33.694Z,1.80
2023-04-15T12:49:01.586Z,2.00
2023-04-15T12:51:29.485Z,1.50
2023-04-15T12:53:58.048Z,1.30
2023-04-15T12:56:26.041Z,2.10
2023-04-15T12:58:53.951Z,2.00
2023-04-15T13:01:21.976Z,1.70
2023-04-15T13:03:51.743Z,3.90
2023-04-15T13:06:19.648Z,1.30
2023-04-15T13:08:57.203Z,1.50
2023-04-15T13:11:26.371Z,1.80
2023-04-15T13:13:54.324Z,1.40
2023-04-15T13:16:22.325Z,1.80
2023-04-15T13:18:50.773Z,1.80
2023-04-15T13:21:19.614Z,1.60
2023-04-15T13:23:50.375Z,1.40
2023-04-15T13:26:18.759Z,2.70
2023-04-15T13:28:46.754Z,1.70
2023-04-15T13:31:14.697Z,2.90
2023-04-15T13:33:45.506Z,8.80
2023-04-15T13:36:13.386Z,2.30
2023-04-15T13:38:41.444Z,6.60
2023-04-15T13:41:09.318Z,4.20
2023-04-15T13:43:37.596Z,4.20
2023-04-15T13:46:05.836Z,2.40
2023-04-15T13:48:33.775Z,6.80
2023-04-15T13:51:01.726Z,7.40
2023-04-15T13:53:37.759Z,5.20
2023-04-15T13:56:08.549Z,2.90
2023-04-15T13:58:37.962Z,1.40
2023-04-15T14:01:07.002Z,1.60
2023-04-15T14:03:36.568Z,2.90
2023-04-15T14:06:08.049Z,1.90
2023-04-15T14:08:36.003Z,1.10
2023-04-15T14:11:03.904Z,1.60
2023-04-15T14:13:31.849Z,1.40
2023-04-15T14:15:59.983Z,1.50
2023-04-15T14:18:28.024Z,1.30
2023-04-15T14:20:56.050Z,1.70
2023-04-15T14:23:23.987Z,3.10
2023-04-15T14:25:52.309Z,5.10
2023-04-15T14:28:20.350Z,4.00
2023-04-15T14:30:48.324Z,4.30
2023-04-15T14:33:16.350Z,2.20
2023-04-15T14:35:44.277Z,1.70
2023-04-15T14:38:12.285Z,2.30
2023-04-15T14:40:41.221Z,2.00
2023-04-15T14:43:09.177Z,2.50
2023-04-15T14:45:38.262Z,2.70
2023-04-15T14:48:09.812Z,2.40
2023-04-15T14:50:38.243Z,2.50
2023-04-15T14:53:06.178Z,1.00
2023-04-15T14:55:34.230Z,2.30
2023-04-15T14:58:02.691Z,1.90
2023-04-15T15:00:30.854Z,1.30
2023-04-15T15:02:58.875Z,1.60
2023-04-15T15:05:27.177Z,1.50
2023-04-15T15:07:55.282Z,1.60
2023-04-15T15:10:33.111Z,1.10
2023-04-15T15:13:09.894Z,0.80
2023-04-15T15:15:39.170Z,1.40
2023-04-15T15:18:07.339Z,1.60
2023-04-15T15:20:36.044Z,3.50
2023-04-15T15:23:03.955Z,4.00
2023-04-15T15:25:31.855Z,1.80
2023-04-15T15:28:00.129Z,1.40
2023-04-15T15:30:28.059Z,1.50
2023-04-15T15:32:56.040Z,1.60
2023-04-15T15:35:24.104Z,1.20
2023-04-15T15:37:52.599Z,1.60
2023-04-15T15:40:20.809Z,1.30
2023-04-15T15:42:50.881Z,1.50
2023-04-15T15:45:19.021Z,2.10
2023-04-15T15:47:47.005Z,2.00
2023-04-15T15:50:14.925Z,2.70
2023-04-15T15:52:42.858Z,3.20
2023-04-15T15:55:10.779Z,3.60
2023-04-15T15:57:38.801Z,3.20
2023-04-15T16:00:12.152Z,2.70
2023-04-15T16:05:13.038Z,2.00
2023-04-15T16:07:40.996Z,1.60
2023-04-15T16:10:09.306Z,3.40
2023-04-15T16:12:37.175Z,2.60
2023-04-15T16:15:05.873Z,5.50
2023-04-15T16:17:34.060Z,6.10
2023-04-15T16:20:05.568Z,4.90
2023-04-15T16:22:35.111Z,4.50
2023-04-15T16:25:03.609Z,4.00
2023-04-15T16:27:31.654Z,2.80
2023-04-15T16:29:59.583Z,4.70
2023-04-15T16:32:27.554Z,4.40
2023-04-15T16:34:55.527Z,5.10
2023-04-15T16:37:23.435Z,22.50
2023-04-15T16:39:51.353Z,5.80
2023-04-15T16:42:19.255Z,3.00
2023-04-15T16:44:47.191Z,1.90
2023-04-15T16:47:15.096Z,2.10
2023-04-15T16:49:43.297Z,1.90
2023-04-15T16:52:11.354Z,2.30
2023-04-15T16:54:41.433Z,2.10
2023-04-15T16:57:09.501Z,2.20
2023-04-15T16:59:37.979Z,2.30
2023-04-15T17:02:06.433Z,2.30
2023-04-15T17:04:35.083Z,2.30
2023-04-15T17:07:03.203Z,2.00
2023-04-15T17:09:31.169Z,3.20
2023-04-15T17:11:59.046Z,3.50
2023-04-15T17:14:29.061Z,3.10
2023-04-15T17:16:57.015Z,3.60
2023-04-15T17:19:26.770Z,5.70
2023-04-15T17:21:55.169Z,4.60
2023-04-15T17:24:23.283Z,4.20
2023-04-15T17:26:51.171Z,4.90
2023-04-15T17:29:19.121Z,5.00
2023-04-15T17:31:47.267Z,4.80
2023-04-15T17:34:16.512Z,5.90
2023-04-15T17:36:45.375Z,6.20
2023-04-15T17:39:15.029Z,6.60
2023-04-15T17:41:43.331Z,8.00
2023-04-15T17:44:11.226Z,9.50
2023-04-15T17:46:39.341Z,13.30
2023-04-15T17:49:07.557Z,13.90
2023-04-15T17:51:35.565Z,11.20
2023-04-15T17:54:12.372Z,8.60
2023-04-15T17:56:40.336Z,8.90
2023-04-15T17:59:08.863Z,9.20
2023-04-15T18:01:37.008Z,10.20
2023-04-15T18:04:05.300Z,10.90
2023-04-15T18:06:33.899Z,11.30
2023-04-15T18:09:02.142Z,8.00
2023-04-15T18:11:33.284Z,8.00
2023-04-15T18:14:03.155Z,7.70
2023-04-15T18:16:31.445Z,7.40
2023-04-15T18:18:59.705Z,8.10
2023-04-15T18:21:28.012Z,8.60
2023-04-15T18:23:56.424Z,21.20
2023-04-15T18:26:24.606Z,19.70
2023-04-15T18:28:52.764Z,16.30
2023-04-15T18:31:21.263Z,11.10
2023-04-15T18:33:49.510Z,11.80
2023-04-15T18:36:17.855Z,14.20
2023-04-15T18:38:46.639Z,9.90
2023-04-15T18:41:14.586Z,8.10
2023-04-15T18:43:42.537Z,7.80
2023-04-15T18:46:12.483Z,7.30
2023-04-15T18:48:40.575Z,7.00
2023-04-15T18:51:08.455Z,7.60
2023-04-15T18:53:36.818Z,6.80
2023-04-15T18:56:05.106Z,7.30
2023-04-15T18:59:21.149Z,6.50
2023-04-15T19:01:21.412Z,5.90
2023-04-15T19:03:50.302Z,5.50
2023-04-15T19:06:18.664Z,6.60
2023-04-15T19:08:47.010Z,5.70
2023-04-15T19:11:15.853Z,5.70
2023-04-15T19:13:43.697Z,5.80
2023-04-15T19:16:11.573Z,6.20
2023-04-15T19:18:39.469Z,6.30
2023-04-15T19:21:07.364Z,8.80
2023-04-15T19:23:35.649Z,10.40
2023-04-15T19:26:03.919Z,9.60
2023-04-15T19:28:32.136Z,9.30
2023-04-15T19:31:00.482Z,9.30
2023-04-15T19:33:31.392Z,9.50
2023-04-15T19:36:04.558Z,9.80
2023-04-15T19:38:37.764Z,9.90
2023-04-15T19:41:05.833Z,10.10
2023-04-15T19:43:34.360Z,11.30
2023-04-15T19:46:02.510Z,9.60
2023-04-15T19:48:30.887Z,9.30
2023-04-15T19:50:59.828Z,10.00
2023-04-15T19:53:27.939Z,9.10
2023-04-15T19:55:56.030Z,8.70
2023-04-15T19:58:23.915Z,7.50
2023-04-15T20:00:52.078Z,7.40
2023-04-15T20:03:20.574Z,7.70
2023-04-15T20:05:48.559Z,7.90
2023-04-15T20:08:16.425Z,7.90
2023-04-15T20:10:44.359Z,8.10
2023-04-15T20:13:12.695Z,7.20
2023-04-15T20:15:40.629Z,7.70
2023-04-15T20:18:08.539Z,8.40
2023-04-15T20:20:39.128Z,8.20
2023-04-15T20:23:06.986Z,7.40
2023-04-15T20:25:34.966Z,7.80
2023-04-15T20:28:02.907Z,7.10
2023-04-15T20:30:30.930Z,8.10
2023-04-15T20:32:59.553Z,7.20
2023-04-15T20:35:30.836Z,7.10
2023-04-15T20:37:59.777Z,7.60
2023-04-15T20:40:28.431Z,8.20
2023-04-15T20:42:56.362Z,8.00
2023-04-15T20:45:24.422Z,7.90
2023-04-15T20:47:54.736Z,8.60
2023-04-15T20:50:22.872Z,10.90
2023-04-15T20:52:50.752Z,10.30
2023-04-15T20:55:18.794Z,9.70
2023-04-15T20:57:48.381Z,10.70
2023-04-15T21:00:16.382Z,9.90
2023-04-15T21:02:44.429Z,15.20
2023-04-15T21:05:12.445Z,11.00
2023-04-15T21:07:41.060Z,7.20
2023-04-15T21:10:09.577Z,6.90
2023-04-15T21:12:41.129Z,7.20
2023-04-15T21:15:09.543Z,7.70
2023-04-15T21:17:37.597Z,7.50
2023-04-15T21:20:06.479Z,8.00
2023-04-15T21:22:34.427Z,8.70
2023-04-15T21:25:02.315Z,10.80
2023-04-15T21:27:30.436Z,12.10
2023-04-15T21:29:58.346Z,11.90
2023-04-15T21:32:26.362Z,11.00
2023-04-15T21:34:54.325Z,9.70
2023-04-15T21:37:22.321Z,9.90
2023-04-15T21:39:50.267Z,9.80
2023-04-15T21:42:18.352Z,10.10
2023-04-15T21:44:46.286Z,9.70
2023-04-15T21:47:14.147Z,11.40
2023-04-15T21:49:42.274Z,10.50
2023-04-15T21:52:10.208Z,11.30
2023-04-15T21:54:38.088Z,11.40
2023-04-15T21:57:05.994Z,12.30
2023-04-15T21:59:34.190Z,11.00
2023-04-15T22:02:02.095Z,12.20
2023-04-15T22:04:30.210Z,11.60
2023-04-15T22:07:01.677Z,10.40
2023-04-15T22:09:29.623Z,9.70
2023-04-15T22:11:59.380Z,10.00
2023-04-15T22:14:28.355Z,10.50
2023-04-15T22:16:57.014Z,11.20
2023-04-15T22:19:25.993Z,10.10
2023-04-15T22:21:53.870Z,10.00
2023-04-15T22:24:34.710Z,9.90
2023-04-15T22:27:09.077Z,10.20
2023-04-15T22:29:36.986Z,9.00
2023-04-15T22:32:05.024Z,9.00
2023-04-15T22:34:32.929Z,8.80
2023-04-15T22:37:00.791Z,9.40
2023-04-15T22:39:28.584Z,10.40
2023-04-15T22:41:56.950Z,9.70
2023-04-15T22:44:24.819Z,16.10
2023-04-15T22:46:52.763Z,14.30
2023-04-15T22:49:20.593Z,12.70
2023-04-15T22:51:48.431Z,10.70
2023-04-15T22:54:16.320Z,9.30
2023-04-15T22:56:44.293Z,9.10
2023-04-15T22:59:12.127Z,9.00
2023-04-15T23:01:40.173Z,9.60
2023-04-15T23:04:09.126Z,12.80
2023-04-15T23:06:51.839Z,12.20
2023-04-15T23:09:19.687Z,11.10
2023-04-15T23:11:47.816Z,10.70
2023-04-15T23:14:15.909Z,9.80
2023-04-15T23:16:43.853Z,10.40
2023-04-15T23:19:11.869Z,12.00
2023-04-15T23:21:39.992Z,11.60
2023-04-15T23:24:07.817Z,10.20
2023-04-15T23:26:35.873Z,10.80
2023-04-15T23:29:03.963Z,10.40
2023-04-15T23:31:32.101Z,10.20
2023-04-15T23:34:00.062Z,9.30
2023-04-15T23:36:28.426Z,8.90
2023-04-15T23:38:56.284Z,8.90
2023-04-15T23:41:24.214Z,8.90
2023-04-15T23:43:52.042Z,8.90
2023-04-15T23:46:20.043Z,9.70
2023-04-15T23:48:49.070Z,9.10
2023-04-15T23:51:17.032Z,9.20
2023-04-15T23:53:44.921Z,8.80
2023-04-15T23:56:12.763Z,8.60
2023-04-15T23:58:40.782Z,8.80
